sensor_id;sensor_type;location;lat;lon;timestamp;temperature;humidity
69503;SHT31;56704;54.242;12.442;2023-04-29T00:01:14;8.33;75.38
69503;SHT31;56704;54.242;12.442;2023-04-29T00:03:42;8.33;75.13
69503;SHT31;56704;54.242;12.442;2023-04-29T00:06:08;8.42;75.19
69503;SHT31;56704;54.242;12.442;2023-04-29T00:08:36;8.43;75.27
69503;SHT31;56704;54.242;12.442;2023-04-29T00:11:03;8.42;75.43
69503;SHT31;56704;54.242;12.442;2023-04-29T00:13:29;8.43;75.40
69503;SHT31;56704;54.242;12.442;2023-04-29T00:15:56;8.45;75.69
69503;SHT31;56704;54.242;12.442;2023-04-29T00:18:22;8.43;75.71
69503;SHT31;56704;54.242;12.442;2023-04-29T00:20:50;8.45;75.83
69503;SHT31;56704;54.242;12.442;2023-04-29T00:23:17;8.40;76.65
69503;SHT31;56704;54.242;12.442;2023-04-29T00:25:44;8.35;77.86
69503;SHT31;56704;54.242;12.442;2023-04-29T00:28:10;8.25;78.26
69503;SHT31;56704;54.242;12.442;2023-04-29T00:30:37;8.16;79.39
69503;SHT31;56704;54.242;12.442;2023-04-29T00:33:04;8.08;80.50
69503;SHT31;56704;54.242;12.442;2023-04-29T00:35:30;8.03;80.60
69503;SHT31;56704;54.242;12.442;2023-04-29T00:37:58;7.92;81.59
69503;SHT31;56704;54.242;12.442;2023-04-29T00:40:26;7.91;81.98
69503;SHT31;56704;54.242;12.442;2023-04-29T00:42:53;7.88;82.21
69503;SHT31;56704;54.242;12.442;2023-04-29T00:45:19;7.80;83.44
69503;SHT31;56704;54.242;12.442;2023-04-29T00:47:46;7.77;83.79
69503;SHT31;56704;54.242;12.442;2023-04-29T00:50:12;7.74;84.14
69503;SHT31;56704;54.242;12.442;2023-04-29T00:52:39;7.74;84.11
69503;SHT31;56704;54.242;12.442;2023-04-29T00:55:10;7.73;84.51
69503;SHT31;56704;54.242;12.442;2023-04-29T00:57:37;7.71;85.18
69503;SHT31;56704;54.242;12.442;2023-04-29T01:00:05;7.73;84.66
69503;SHT31;56704;54.242;12.442;2023-04-29T01:02:34;7.70;85.44
69503;SHT31;56704;54.242;12.442;2023-04-29T01:05:01;7.67;85.06
69503;SHT31;56704;54.242;12.442;2023-04-29T01:07:32;7.67;86.07
69503;SHT31;56704;54.242;12.442;2023-04-29T01:10:02;7.69;85.60
69503;SHT31;56704;54.242;12.442;2023-04-29T01:12:40;7.64;86.50
69503;SHT31;56704;54.242;12.442;2023-04-29T01:15:14;7.67;86.66
69503;SHT31;56704;54.242;12.442;2023-04-29T01:17:43;7.67;86.81
69503;SHT31;56704;54.242;12.442;2023-04-29T01:20:15;7.63;86.55
69503;SHT31;56704;54.242;12.442;2023-04-29T01:22:42;7.60;87.39
69503;SHT31;56704;54.242;12.442;2023-04-29T01:25:10;7.60;87.43
69503;SHT31;56704;54.242;12.442;2023-04-29T01:27:41;7.60;86.64
69503;SHT31;56704;54.242;12.442;2023-04-29T01:30:17;7.54;86.72
69503;SHT31;56704;54.242;12.442;2023-04-29T01:32:52;7.53;87.05
69503;SHT31;56704;54.242;12.442;2023-04-29T01:35:44;7.54;87.22
69503;SHT31;56704;54.242;12.442;2023-04-29T01:38:18;7.94;84.43
69503;SHT31;56704;54.242;12.442;2023-04-29T01:40:52;7.90;85.11
69503;SHT31;56704;54.242;12.442;2023-04-29T01:43:24;7.88;85.27
69503;SHT31;56704;54.242;12.442;2023-04-29T01:45:53;7.53;86.53
69503;SHT31;56704;54.242;12.442;2023-04-29T01:48:22;7.42;87.19
69503;SHT31;56704;54.242;12.442;2023-04-29T01:50:49;7.37;88.13
69503;SHT31;56704;54.242;12.442;2023-04-29T01:53:16;7.39;87.45
69503;SHT31;56704;54.242;12.442;2023-04-29T01:55:42;7.74;86.91
69503;SHT31;56704;54.242;12.442;2023-04-29T01:58:10;7.71;86.54
69503;SHT31;56704;54.242;12.442;2023-04-29T02:00:37;7.42;87.90
69503;SHT31;56704;54.242;12.442;2023-04-29T02:03:03;7.36;88.68
69503;SHT31;56704;54.242;12.442;2023-04-29T02:05:30;7.37;88.13
69503;SHT31;56704;54.242;12.442;2023-04-29T02:07:58;7.37;89.06
69503;SHT31;56704;54.242;12.442;2023-04-29T02:10:25;7.40;87.96
69503;SHT31;56704;54.242;12.442;2023-04-29T02:12:52;7.39;88.24
69503;SHT31;56704;54.242;12.442;2023-04-29T02:15:20;7.40;88.30
69503;SHT31;56704;54.242;12.442;2023-04-29T02:17:46;7.39;88.65
69503;SHT31;56704;54.242;12.442;2023-04-29T02:20:13;7.37;88.50
69503;SHT31;56704;54.242;12.442;2023-04-29T02:22:40;7.37;88.70
69503;SHT31;56704;54.242;12.442;2023-04-29T02:25:07;7.34;87.75
69503;SHT31;56704;54.242;12.442;2023-04-29T02:27:34;7.34;88.14
69503;SHT31;56704;54.242;12.442;2023-04-29T02:30:00;7.30;89.04
69503;SHT31;56704;54.242;12.442;2023-04-29T02:32:30;7.30;88.38
69503;SHT31;56704;54.242;12.442;2023-04-29T02:34:57;7.29;88.04
69503;SHT31;56704;54.242;12.442;2023-04-29T02:37:23;7.30;88.26
69503;SHT31;56704;54.242;12.442;2023-04-29T02:39:50;7.33;88.22
69503;SHT31;56704;54.242;12.442;2023-04-29T02:42:17;7.40;88.29
69503;SHT31;56704;54.242;12.442;2023-04-29T02:44:44;7.36;88.58
69503;SHT31;56704;54.242;12.442;2023-04-29T02:47:11;7.36;87.77
69503;SHT31;56704;54.242;12.442;2023-04-29T02:49:40;7.34;87.69
69503;SHT31;56704;54.242;12.442;2023-04-29T02:52:06;7.31;88.18
69503;SHT31;56704;54.242;12.442;2023-04-29T02:54:33;7.36;88.31
69503;SHT31;56704;54.242;12.442;2023-04-29T02:57:00;7.70;87.83
69503;SHT31;56704;54.242;12.442;2023-04-29T02:59:27;7.82;86.88
69503;SHT31;56704;54.242;12.442;2023-04-29T03:01:53;7.49;87.01
69503;SHT31;56704;54.242;12.442;2023-04-29T03:04:21;7.39;88.02
69503;SHT31;56704;54.242;12.442;2023-04-29T03:06:49;7.37;88.38
69503;SHT31;56704;54.242;12.442;2023-04-29T03:09:16;7.40;87.94
69503;SHT31;56704;54.242;12.442;2023-04-29T03:11:42;7.49;87.25
69503;SHT31;56704;54.242;12.442;2023-04-29T03:14:09;7.44;88.44
69503;SHT31;56704;54.242;12.442;2023-04-29T03:16:36;7.50;87.84
69503;SHT31;56704;54.242;12.442;2023-04-29T03:19:02;7.57;87.18
69503;SHT31;56704;54.242;12.442;2023-04-29T03:21:29;7.66;87.71
69503;SHT31;56704;54.242;12.442;2023-04-29T03:23:57;7.69;87.73
69503;SHT31;56704;54.242;12.442;2023-04-29T03:26:23;7.67;87.91
69503;SHT31;56704;54.242;12.442;2023-04-29T03:28:50;7.60;88.14
69503;SHT31;56704;54.242;12.442;2023-04-29T03:31:16;7.51;88.19
69503;SHT31;56704;54.242;12.442;2023-04-29T03:33:45;7.50;88.16
69503;SHT31;56704;54.242;12.442;2023-04-29T03:36:12;7.49;87.92
69503;SHT31;56704;54.242;12.442;2023-04-29T03:38:38;7.49;88.04
69503;SHT31;56704;54.242;12.442;2023-04-29T03:41:07;7.53;87.99
69503;SHT31;56704;54.242;12.442;2023-04-29T03:43:33;7.51;87.84
69503;SHT31;56704;54.242;12.442;2023-04-29T03:46:00;7.50;88.12
69503;SHT31;56704;54.242;12.442;2023-04-29T03:48:27;7.51;87.78
69503;SHT31;56704;54.242;12.442;2023-04-29T03:50:53;7.66;87.47
69503;SHT31;56704;54.242;12.442;2023-04-29T03:53:20;7.67;86.95
69503;SHT31;56704;54.242;12.442;2023-04-29T03:55:47;7.73;87.96
69503;SHT31;56704;54.242;12.442;2023-04-29T03:58:15;7.74;86.81
69503;SHT31;56704;54.242;12.442;2023-04-29T04:00:41;7.80;86.50
69503;SHT31;56704;54.242;12.442;2023-04-29T04:03:08;7.88;86.58
69503;SHT31;56704;54.242;12.442;2023-04-29T04:05:35;8.36;85.45
69503;SHT31;56704;54.242;12.442;2023-04-29T04:08:01;7.97;86.24
69503;SHT31;56704;54.242;12.442;2023-04-29T04:10:28;7.95;86.63
69503;SHT31;56704;54.242;12.442;2023-04-29T04:12:54;7.98;86.80
69503;SHT31;56704;54.242;12.442;2023-04-29T04:15:22;8.06;86.42
69503;SHT31;56704;54.242;12.442;2023-04-29T04:17:49;8.05;86.90
69503;SHT31;56704;54.242;12.442;2023-04-29T04:20:15;8.46;84.47
69503;SHT31;56704;54.242;12.442;2023-04-29T04:22:42;8.54;85.45
69503;SHT31;56704;54.242;12.442;2023-04-29T04:25:09;8.11;86.51
69503;SHT31;56704;54.242;12.442;2023-04-29T04:27:36;8.11;87.08
69503;SHT31;56704;54.242;12.442;2023-04-29T04:30:03;8.05;87.55
69503;SHT31;56704;54.242;12.442;2023-04-29T04:32:31;8.08;87.74
69503;SHT31;56704;54.242;12.442;2023-04-29T04:34:57;8.13;86.97
69503;SHT31;56704;54.242;12.442;2023-04-29T04:37:24;8.21;86.99
69503;SHT31;56704;54.242;12.442;2023-04-29T04:39:51;8.18;87.41
69503;SHT31;56704;54.242;12.442;2023-04-29T04:42:17;8.21;87.37
69503;SHT31;56704;54.242;12.442;2023-04-29T04:44:44;8.19;87.33
69503;SHT31;56704;54.242;12.442;2023-04-29T04:47:11;8.19;87.46
69503;SHT31;56704;54.242;12.442;2023-04-29T04:49:39;8.24;87.44
69503;SHT31;56704;54.242;12.442;2023-04-29T04:52:05;8.22;87.66
69503;SHT31;56704;54.242;12.442;2023-04-29T04:54:32;8.26;87.72
69503;SHT31;56704;54.242;12.442;2023-04-29T04:56:59;8.35;85.84
69503;SHT31;56704;54.242;12.442;2023-04-29T04:59:30;8.35;85.33
69503;SHT31;56704;54.242;12.442;2023-04-29T05:01:56;8.40;86.10
69503;SHT31;56704;54.242;12.442;2023-04-29T05:04:23;8.40;86.16
69503;SHT31;56704;54.242;12.442;2023-04-29T05:06:51;8.79;85.21
69503;SHT31;56704;54.242;12.442;2023-04-29T05:09:18;8.96;84.67
69503;SHT31;56704;54.242;12.442;2023-04-29T05:11:44;9.00;83.81
69503;SHT31;56704;54.242;12.442;2023-04-29T05:14:11;9.08;84.57
69503;SHT31;56704;54.242;12.442;2023-04-29T05:16:38;9.17;84.17
69503;SHT31;56704;54.242;12.442;2023-04-29T05:19:04;8.80;86.14
69503;SHT31;56704;54.242;12.442;2023-04-29T05:21:31;8.81;86.45
69503;SHT31;56704;54.242;12.442;2023-04-29T05:23:59;8.83;86.22
69503;SHT31;56704;54.242;12.442;2023-04-29T05:26:25;8.91;85.87
69503;SHT31;56704;54.242;12.442;2023-04-29T05:28:52;8.92;85.86
69503;SHT31;56704;54.242;12.442;2023-04-29T05:31:19;8.94;85.80
69503;SHT31;56704;54.242;12.442;2023-04-29T05:33:46;8.94;86.66
69503;SHT31;56704;54.242;12.442;2023-04-29T05:36:13;8.96;85.87
69503;SHT31;56704;54.242;12.442;2023-04-29T05:38:39;8.94;86.09
69503;SHT31;56704;54.242;12.442;2023-04-29T05:41:08;8.99;86.21
69503;SHT31;56704;54.242;12.442;2023-04-29T05:43:34;8.99;86.51
69503;SHT31;56704;54.242;12.442;2023-04-29T05:46:01;9.07;85.78
69503;SHT31;56704;54.242;12.442;2023-04-29T05:48:28;9.11;86.12
69503;SHT31;56704;54.242;12.442;2023-04-29T05:50:54;9.11;86.05
69503;SHT31;56704;54.242;12.442;2023-04-29T05:53:21;9.18;86.16
69503;SHT31;56704;54.242;12.442;2023-04-29T05:55:48;9.22;85.53
69503;SHT31;56704;54.242;12.442;2023-04-29T05:58:16;9.31;85.33
69503;SHT31;56704;54.242;12.442;2023-04-29T06:00:43;9.35;85.79
69503;SHT31;56704;54.242;12.442;2023-04-29T06:03:09;9.39;85.49
69503;SHT31;56704;54.242;12.442;2023-04-29T06:05:36;9.56;85.49
69503;SHT31;56704;54.242;12.442;2023-04-29T06:08:03;9.63;85.57
69503;SHT31;56704;54.242;12.442;2023-04-29T06:10:30;9.80;83.47
69503;SHT31;56704;54.242;12.442;2023-04-29T06:12:57;9.80;84.65
69503;SHT31;56704;54.242;12.442;2023-04-29T06:15:25;9.87;84.44
69503;SHT31;56704;54.242;12.442;2023-04-29T06:17:52;9.96;84.14
69503;SHT31;56704;54.242;12.442;2023-04-29T06:20:19;10.04;83.80
69503;SHT31;56704;54.242;12.442;2023-04-29T06:22:45;10.14;82.55
69503;SHT31;56704;54.242;12.442;2023-04-29T06:25:12;10.24;82.95
69503;SHT31;56704;54.242;12.442;2023-04-29T06:27:39;10.36;82.40
69503;SHT31;56704;54.242;12.442;2023-04-29T06:30:07;10.37;82.58
69503;SHT31;56704;54.242;12.442;2023-04-29T06:32:35;10.51;81.80
69503;SHT31;56704;54.242;12.442;2023-04-29T06:35:01;10.47;81.86
69503;SHT31;56704;54.242;12.442;2023-04-29T06:37:28;10.54;82.27
69503;SHT31;56704;54.242;12.442;2023-04-29T06:39:54;10.54;81.71
69503;SHT31;56704;54.242;12.442;2023-04-29T06:42:21;10.54;81.57
69503;SHT31;56704;54.242;12.442;2023-04-29T06:44:48;10.62;81.73
69503;SHT31;56704;54.242;12.442;2023-04-29T06:47:14;10.76;82.11
69503;SHT31;56704;54.242;12.442;2023-04-29T06:49:42;10.89;81.65
69503;SHT31;56704;54.242;12.442;2023-04-29T06:52:09;10.85;79.66
69503;SHT31;56704;54.242;12.442;2023-04-29T06:54:36;10.93;79.58
69503;SHT31;56704;54.242;12.442;2023-04-29T06:57:02;10.93;78.94
69503;SHT31;56704;54.242;12.442;2023-04-29T06:59:29;10.99;78.79
69503;SHT31;56704;54.242;12.442;2023-04-29T07:01:56;11.08;79.44
69503;SHT31;56704;54.242;12.442;2023-04-29T07:04:23;11.12;78.24
69503;SHT31;56704;54.242;12.442;2023-04-29T07:06:51;11.18;77.93
69503;SHT31;56704;54.242;12.442;2023-04-29T07:09:18;11.22;77.35
69503;SHT31;56704;54.242;12.442;2023-04-29T07:11:45;11.27;77.38
69503;SHT31;56704;54.242;12.442;2023-04-29T07:14:11;11.29;76.87
69503;SHT31;56704;54.242;12.442;2023-04-29T07:16:38;11.44;76.90
69503;SHT31;56704;54.242;12.442;2023-04-29T07:19:05;11.51;76.47
69503;SHT31;56704;54.242;12.442;2023-04-29T07:21:32;11.60;76.23
69503;SHT31;56704;54.242;12.442;2023-04-29T07:24:00;11.69;74.40
69503;SHT31;56704;54.242;12.442;2023-04-29T07:26:29;11.75;74.21
69503;SHT31;56704;54.242;12.442;2023-04-29T07:28:56;11.90;73.74
69503;SHT31;56704;54.242;12.442;2023-04-29T07:31:22;11.95;72.78
69503;SHT31;56704;54.242;12.442;2023-04-29T07:33:49;11.92;72.88
69503;SHT31;56704;54.242;12.442;2023-04-29T07:36:16;11.98;71.67
69503;SHT31;56704;54.242;12.442;2023-04-29T07:38:42;12.15;72.69
69503;SHT31;56704;54.242;12.442;2023-04-29T07:41:11;12.11;72.44
69503;SHT31;56704;54.242;12.442;2023-04-29T07:43:40;12.15;72.58
69503;SHT31;56704;54.242;12.442;2023-04-29T07:46:06;12.38;72.85
69503;SHT31;56704;54.242;12.442;2023-04-29T07:48:36;12.45;71.53
69503;SHT31;56704;54.242;12.442;2023-04-29T07:51:03;12.50;70.94
69503;SHT31;56704;54.242;12.442;2023-04-29T07:53:30;12.38;69.88
69503;SHT31;56704;54.242;12.442;2023-04-29T07:55:56;12.48;70.20
69503;SHT31;56704;54.242;12.442;2023-04-29T07:58:26;12.57;69.96
69503;SHT31;56704;54.242;12.442;2023-04-29T08:00:54;12.84;69.12
69503;SHT31;56704;54.242;12.442;2023-04-29T08:03:21;12.99;70.09
69503;SHT31;56704;54.242;12.442;2023-04-29T08:05:47;13.24;69.11
69503;SHT31;56704;54.242;12.442;2023-04-29T08:08:15;13.41;68.86
69503;SHT31;56704;54.242;12.442;2023-04-29T08:10:43;13.79;67.38
69503;SHT31;56704;54.242;12.442;2023-04-29T08:13:09;13.78;65.64
69503;SHT31;56704;54.242;12.442;2023-04-29T08:15:37;13.96;67.93
69503;SHT31;56704;54.242;12.442;2023-04-29T08:18:04;13.80;64.09
69503;SHT31;56704;54.242;12.442;2023-04-29T08:20:31;13.70;62.87
69503;SHT31;56704;54.242;12.442;2023-04-29T08:23:00;13.91;63.77
69503;SHT31;56704;54.242;12.442;2023-04-29T08:25:27;14.02;62.89
69503;SHT31;56704;54.242;12.442;2023-04-29T08:27:54;13.89;62.52
69503;SHT31;56704;54.242;12.442;2023-04-29T08:30:22;14.00;63.76
69503;SHT31;56704;54.242;12.442;2023-04-29T08:32:50;14.03;61.40
69503;SHT31;56704;54.242;12.442;2023-04-29T08:35:16;13.91;59.72
69503;SHT31;56704;54.242;12.442;2023-04-29T08:37:43;14.19;60.62
69503;SHT31;56704;54.242;12.442;2023-04-29T08:40:10;14.12;58.98
69503;SHT31;56704;54.242;12.442;2023-04-29T08:42:38;14.09;59.82
69503;SHT31;56704;54.242;12.442;2023-04-29T08:45:05;14.10;61.02
69503;SHT31;56704;54.242;12.442;2023-04-29T08:47:33;14.10;60.72
69503;SHT31;56704;54.242;12.442;2023-04-29T08:50:03;14.29;62.16
69503;SHT31;56704;54.242;12.442;2023-04-29T08:52:30;14.10;61.60
69503;SHT31;56704;54.242;12.442;2023-04-29T08:54:57;13.85;63.24
69503;SHT31;56704;54.242;12.442;2023-04-29T08:57:27;13.86;62.40
69503;SHT31;56704;54.242;12.442;2023-04-29T08:59:55;13.90;62.95
69503;SHT31;56704;54.242;12.442;2023-04-29T09:02:22;13.75;64.43
69503;SHT31;56704;54.242;12.442;2023-04-29T09:04:55;13.82;65.34
69503;SHT31;56704;54.242;12.442;2023-04-29T09:07:24;13.90;64.97
69503;SHT31;56704;54.242;12.442;2023-04-29T09:09:53;13.86;63.72
69503;SHT31;56704;54.242;12.442;2023-04-29T09:12:20;13.82;63.54
69503;SHT31;56704;54.242;12.442;2023-04-29T09:14:46;13.98;62.92
69503;SHT31;56704;54.242;12.442;2023-04-29T09:17:13;13.91;62.04
69503;SHT31;56704;54.242;12.442;2023-04-29T09:19:41;14.03;62.86
69503;SHT31;56704;54.242;12.442;2023-04-29T09:22:09;14.19;61.68
69503;SHT31;56704;54.242;12.442;2023-04-29T09:24:37;14.24;60.78
69503;SHT31;56704;54.242;12.442;2023-04-29T09:27:04;14.45;59.44
69503;SHT31;56704;54.242;12.442;2023-04-29T09:29:30;14.41;56.96
69503;SHT31;56704;54.242;12.442;2023-04-29T09:31:58;14.50;56.78
69503;SHT31;56704;54.242;12.442;2023-04-29T09:34:30;14.74;57.26
69503;SHT31;56704;54.242;12.442;2023-04-29T09:36:57;14.79;54.25
69503;SHT31;56704;54.242;12.442;2023-04-29T09:39:24;14.84;54.54
69503;SHT31;56704;54.242;12.442;2023-04-29T09:41:59;14.88;55.11
69503;SHT31;56704;54.242;12.442;2023-04-29T09:44:28;15.09;54.23
69503;SHT31;56704;54.242;12.442;2023-04-29T09:46:56;15.16;54.14
69503;SHT31;56704;54.242;12.442;2023-04-29T09:49:25;15.20;56.01
69503;SHT31;56704;54.242;12.442;2023-04-29T09:51:54;14.85;57.04
69503;SHT31;56704;54.242;12.442;2023-04-29T09:54:21;14.88;57.74
69503;SHT31;56704;54.242;12.442;2023-04-29T09:56:49;14.57;57.12
69503;SHT31;56704;54.242;12.442;2023-04-29T09:59:17;14.48;58.87
69503;SHT31;56704;54.242;12.442;2023-04-29T10:01:46;14.41;59.17
69503;SHT31;56704;54.242;12.442;2023-04-29T10:04:15;14.31;59.64
69503;SHT31;56704;54.242;12.442;2023-04-29T10:06:43;14.34;59.44
69503;SHT31;56704;54.242;12.442;2023-04-29T10:09:12;14.21;59.51
69503;SHT31;56704;54.242;12.442;2023-04-29T10:11:41;14.42;60.79
69503;SHT31;56704;54.242;12.442;2023-04-29T10:14:11;14.68;59.50
69503;SHT31;56704;54.242;12.442;2023-04-29T10:16:44;14.34;59.33
69503;SHT31;56704;54.242;12.442;2023-04-29T10:19:14;14.47;59.30
69503;SHT31;56704;54.242;12.442;2023-04-29T10:21:43;14.68;58.68
69503;SHT31;56704;54.242;12.442;2023-04-29T10:24:11;14.93;58.43
69503;SHT31;56704;54.242;12.442;2023-04-29T10:26:41;14.98;58.50
69503;SHT31;56704;54.242;12.442;2023-04-29T10:29:10;15.18;58.03
69503;SHT31;56704;54.242;12.442;2023-04-29T10:31:40;14.98;57.08
69503;SHT31;56704;54.242;12.442;2023-04-29T10:34:08;15.08;57.97
69503;SHT31;56704;54.242;12.442;2023-04-29T10:36:36;15.16;56.75
69503;SHT31;56704;54.242;12.442;2023-04-29T10:39:04;15.10;57.13
69503;SHT31;56704;54.242;12.442;2023-04-29T10:41:35;15.09;57.31
69503;SHT31;56704;54.242;12.442;2023-04-29T10:44:03;15.33;56.20
69503;SHT31;56704;54.242;12.442;2023-04-29T10:46:30;15.33;56.82
69503;SHT31;56704;54.242;12.442;2023-04-29T10:48:59;15.19;55.54
69503;SHT31;56704;54.242;12.442;2023-04-29T10:51:28;14.95;56.46
69503;SHT31;56704;54.242;12.442;2023-04-29T10:53:59;14.88;56.69
69503;SHT31;56704;54.242;12.442;2023-04-29T10:56:36;14.89;56.40
69503;SHT31;56704;54.242;12.442;2023-04-29T10:59:04;15.06;55.93
69503;SHT31;56704;54.242;12.442;2023-04-29T11:01:44;15.30;55.09
69503;SHT31;56704;54.242;12.442;2023-04-29T11:04:13;15.43;53.84
69503;SHT31;56704;54.242;12.442;2023-04-29T11:06:41;15.74;54.66
69503;SHT31;56704;54.242;12.442;2023-04-29T11:09:11;15.74;52.92
69503;SHT31;56704;54.242;12.442;2023-04-29T11:11:43;15.59;53.06
69503;SHT31;56704;54.242;12.442;2023-04-29T11:14:11;15.66;54.04
69503;SHT31;56704;54.242;12.442;2023-04-29T11:16:46;15.83;53.74
69503;SHT31;56704;54.242;12.442;2023-04-29T11:19:16;16.01;51.40
69503;SHT31;56704;54.242;12.442;2023-04-29T11:21:44;16.09;49.94
69503;SHT31;56704;54.242;12.442;2023-04-29T11:24:11;16.29;49.66
69503;SHT31;56704;54.242;12.442;2023-04-29T11:26:40;16.56;49.08
69503;SHT31;56704;54.242;12.442;2023-04-29T11:29:07;16.81;47.26
69503;SHT31;56704;54.242;12.442;2023-04-29T11:31:35;16.70;47.00
69503;SHT31;56704;54.242;12.442;2023-04-29T11:34:03;16.72;46.90
69503;SHT31;56704;54.242;12.442;2023-04-29T11:36:31;16.77;45.59
69503;SHT31;56704;54.242;12.442;2023-04-29T11:38:59;16.87;45.51
69503;SHT31;56704;54.242;12.442;2023-04-29T11:41:26;16.83;43.15
69503;SHT31;56704;54.242;12.442;2023-04-29T11:43:57;16.73;46.45
69503;SHT31;56704;54.242;12.442;2023-04-29T11:46:24;16.83;46.57
69503;SHT31;56704;54.242;12.442;2023-04-29T11:48:53;17.00;44.28
69503;SHT31;56704;54.242;12.442;2023-04-29T11:51:20;17.47;45.16
69503;SHT31;56704;54.242;12.442;2023-04-29T11:53:48;17.71;43.74
69503;SHT31;56704;54.242;12.442;2023-04-29T11:56:14;17.92;44.23
69503;SHT31;56704;54.242;12.442;2023-04-29T11:58:41;18.13;44.13
69503;SHT31;56704;54.242;12.442;2023-04-29T12:01:09;17.98;44.13
69503;SHT31;56704;54.242;12.442;2023-04-29T12:03:35;17.88;45.02
69503;SHT31;56704;54.242;12.442;2023-04-29T12:06:02;17.86;46.07
69503;SHT31;56704;54.242;12.442;2023-04-29T12:08:29;17.86;46.10
69503;SHT31;56704;54.242;12.442;2023-04-29T12:10:59;18.17;45.92
69503;SHT31;56704;54.242;12.442;2023-04-29T12:13:27;18.22;46.03
69503;SHT31;56704;54.242;12.442;2023-04-29T12:15:55;18.32;46.54
69503;SHT31;56704;54.242;12.442;2023-04-29T12:18:22;18.69;45.90
69503;SHT31;56704;54.242;12.442;2023-04-29T12:20:49;18.83;45.77
69503;SHT31;56704;54.242;12.442;2023-04-29T12:23:17;19.11;44.97
69503;SHT31;56704;54.242;12.442;2023-04-29T12:25:48;19.14;44.67
69503;SHT31;56704;54.242;12.442;2023-04-29T12:28:18;19.09;44.88
69503;SHT31;56704;54.242;12.442;2023-04-29T12:30:45;18.79;44.47
69503;SHT31;56704;54.242;12.442;2023-04-29T12:33:17;18.75;44.05
69503;SHT31;56704;54.242;12.442;2023-04-29T12:35:44;18.78;43.66
69503;SHT31;56704;54.242;12.442;2023-04-29T12:38:10;19.15;43.05
69503;SHT31;56704;54.242;12.442;2023-04-29T12:40:38;19.50;42.56
69503;SHT31;56704;54.242;12.442;2023-04-29T12:43:09;19.71;42.64
69503;SHT31;56704;54.242;12.442;2023-04-29T12:45:38;19.35;41.17
69503;SHT31;56704;54.242;12.442;2023-04-29T12:48:05;19.07;40.99
69503;SHT31;56704;54.242;12.442;2023-04-29T12:50:33;19.33;42.92
69503;SHT31;56704;54.242;12.442;2023-04-29T12:53:01;19.53;41.74
69503;SHT31;56704;54.242;12.442;2023-04-29T12:55:30;19.08;41.21
69503;SHT31;56704;54.242;12.442;2023-04-29T12:57:56;18.83;40.96
69503;SHT31;56704;54.242;12.442;2023-04-29T13:00:23;19.09;42.39
69503;SHT31;56704;54.242;12.442;2023-04-29T13:02:51;19.52;41.04
69503;SHT31;56704;54.242;12.442;2023-04-29T13:05:18;19.59;39.98
69503;SHT31;56704;54.242;12.442;2023-04-29T13:07:44;19.62;41.85
69503;SHT31;56704;54.242;12.442;2023-04-29T13:10:12;19.65;40.06
69503;SHT31;56704;54.242;12.442;2023-04-29T13:12:39;19.53;40.81
69503;SHT31;56704;54.242;12.442;2023-04-29T13:15:06;19.97;39.36
69503;SHT31;56704;54.242;12.442;2023-04-29T13:17:34;19.91;39.45
69503;SHT31;56704;54.242;12.442;2023-04-29T13:20:03;19.73;39.18
69503;SHT31;56704;54.242;12.442;2023-04-29T13:22:31;20.13;36.93
69503;SHT31;56704;54.242;12.442;2023-04-29T13:24:57;20.04;36.54
69503;SHT31;56704;54.242;12.442;2023-04-29T13:27:24;20.35;37.53
69503;SHT31;56704;54.242;12.442;2023-04-29T13:29:51;20.34;37.50
69503;SHT31;56704;54.242;12.442;2023-04-29T13:32:17;19.62;35.67
69503;SHT31;56704;54.242;12.442;2023-04-29T13:34:47;19.04;38.11
69503;SHT31;56704;54.242;12.442;2023-04-29T13:37:15;18.92;38.21
69503;SHT31;56704;54.242;12.442;2023-04-29T13:39:42;18.98;37.63
69503;SHT31;56704;54.242;12.442;2023-04-29T13:42:09;18.61;37.87
69503;SHT31;56704;54.242;12.442;2023-04-29T13:44:35;18.46;37.46
69503;SHT31;56704;54.242;12.442;2023-04-29T13:47:02;19.12;34.82
69503;SHT31;56704;54.242;12.442;2023-04-29T13:49:30;19.67;34.67
69503;SHT31;56704;54.242;12.442;2023-04-29T13:51:57;19.90;32.27
69503;SHT31;56704;54.242;12.442;2023-04-29T13:54:24;20.28;31.86
69503;SHT31;56704;54.242;12.442;2023-04-29T13:56:51;19.78;31.89
69503;SHT31;56704;54.242;12.442;2023-04-29T13:59:18;20.22;32.46
69503;SHT31;56704;54.242;12.442;2023-04-29T14:01:44;20.71;30.49
69503;SHT31;56704;54.242;12.442;2023-04-29T14:04:11;20.66;31.92
69503;SHT31;56704;54.242;12.442;2023-04-29T14:06:37;21.51;31.59
69503;SHT31;56704;54.242;12.442;2023-04-29T14:09:04;21.20;31.53
69503;SHT31;56704;54.242;12.442;2023-04-29T14:11:32;21.38;31.91
69503;SHT31;56704;54.242;12.442;2023-04-29T14:14:00;20.96;31.62
69503;SHT31;56704;54.242;12.442;2023-04-29T14:16:27;21.08;32.75
69503;SHT31;56704;54.242;12.442;2023-04-29T14:18:54;20.96;32.22
69503;SHT31;56704;54.242;12.442;2023-04-29T14:21:20;20.79;32.88
69503;SHT31;56704;54.242;12.442;2023-04-29T14:23:47;21.23;33.83
69503;SHT31;56704;54.242;12.442;2023-04-29T14:26:14;20.92;33.75
69503;SHT31;56704;54.242;12.442;2023-04-29T14:28:42;20.58;34.68
69503;SHT31;56704;54.242;12.442;2023-04-29T14:31:09;20.46;35.16
69503;SHT31;56704;54.242;12.442;2023-04-29T14:33:37;20.75;34.97
69503;SHT31;56704;54.242;12.442;2023-04-29T14:36:05;20.01;35.70
69503;SHT31;56704;54.242;12.442;2023-04-29T14:38:31;20.13;36.40
69503;SHT31;56704;54.242;12.442;2023-04-29T14:40:58;20.01;35.97
69503;SHT31;56704;54.242;12.442;2023-04-29T14:43:24;19.84;35.61
69503;SHT31;56704;54.242;12.442;2023-04-29T14:45:54;18.89;36.88
69503;SHT31;56704;54.242;12.442;2023-04-29T14:48:21;18.60;37.60
69503;SHT31;56704;54.242;12.442;2023-04-29T14:50:47;18.10;38.80
69503;SHT31;56704;54.242;12.442;2023-04-29T14:53:14;17.93;38.48
69503;SHT31;56704;54.242;12.442;2023-04-29T14:55:41;17.62;39.14
69503;SHT31;56704;54.242;12.442;2023-04-29T14:58:08;17.55;39.46
69503;SHT31;56704;54.242;12.442;2023-04-29T15:00:34;17.57;40.35
69503;SHT31;56704;54.242;12.442;2023-04-29T15:03:02;17.26;39.68
69503;SHT31;56704;54.242;12.442;2023-04-29T15:05:29;17.21;39.80
69503;SHT31;56704;54.242;12.442;2023-04-29T15:07:56;17.30;40.85
69503;SHT31;56704;54.242;12.442;2023-04-29T15:10:24;16.90;40.84
69503;SHT31;56704;54.242;12.442;2023-04-29T15:12:51;17.00;41.89
69503;SHT31;56704;54.242;12.442;2023-04-29T15:15:18;17.11;41.36
69503;SHT31;56704;54.242;12.442;2023-04-29T15:17:45;17.16;41.21
69503;SHT31;56704;54.242;12.442;2023-04-29T15:20:13;17.02;41.47
69503;SHT31;56704;54.242;12.442;2023-04-29T15:22:39;16.96;41.66
69503;SHT31;56704;54.242;12.442;2023-04-29T15:25:07;16.94;41.48